Latest Weather Observations for Jabiru

IDD60801

Issued at 10:01 am CST Friday 21 July 2017 (issued every 30 minutes, with the page automatically refreshed every 10 minutes)

About weather observations | Map of weather stations | Latest weather observations for NT | Other Formats
Station Details ID: 014198 Name: JABIRU AIRPORT Lat: -12.66 Lon: 132.89 Height: 26.5 m
Data from the previous 72 hours. | See also: Recent months at Jabiru
Date/Time
CST
Temp
°C
App
Temp
°C
Dew
Point
°C
Rel
Hum
%
Delta-T
°C
Wind Press
QNH
hPa
Press
MSL
hPa
Rain since
9am
mm
Dir  Spd
km/h
Gust
km/h
Spd
kts
Gust
kts
21/10:00am 26.8 23.0 5.7 26 10.9 SE 15 22 8 12 1016.0 1015.8 0.0
21/09:30am 25.8 21.1 5.9 28 10.3 SE 20 32 11 17 1016.0 1015.8 0.0
21/09:00am 25.1 20.9 5.8 29 9.9 SE 17 28 9 15 1015.9 1015.7 0.0
21/08:30am 24.3 20.7 5.1 29 9.7 ESE 13 22 7 12 1015.4 1015.2 0.0
21/08:00am 23.0 20.1 4.5 30 9.1 SE 9 15 5 8 1014.7 1014.5 0.0
21/07:30am 21.2 18.4 3.4 31 8.5 SE 7 11 4 6 1014.4 1014.2 0.0
21/07:00am 21.7 18.1 2.9 29 8.9 ESE 11 17 6 9 1014.1 1013.9 0.0
21/06:30am 21.5 18.4 3.7 31 8.6 ESE 9 15 5 8 1013.9 1013.7 0.0
21/06:00am 20.3 17.7 4.4 35 7.7 SE 7 11 4 6 1013.6 1013.4 0.0
21/05:30am 20.5 18.1 4.1 34 7.9 SE 6 7 3 4 1013.4 1013.2 0.0
21/05:00am 21.4 18.3 3.6 31 8.5 ESE 9 13 5 7 1013.3 1013.1 0.0
21/04:30am 21.7 18.4 4.3 32 8.5 SE 11 17 6 9 1013.1 1012.9 0.0
21/04:00am 21.0 18.5 5.0 35 7.9 ESE 7 9 4 5 1013.0 1012.8 0.0
21/03:30am 21.5 18.6 4.6 33 8.3 ESE 9 13 5 7 1013.1 1012.9 0.0
21/03:00am 21.6 19.2 5.1 34 8.2 ESE 7 11 4 6 1013.1 1012.9 0.0
21/02:30am 22.0 19.3 5.8 35 8.1 SE 9 11 5 6 1013.1 1012.9 0.0
21/02:00am 22.2 19.7 6.4 36 8.0 ESE 9 13 5 7 1013.4 1013.2 0.0
21/01:30am 22.7 20.2 6.5 35 8.3 ESE 9 13 5 7 1013.5 1013.3 0.0
21/01:00am 23.6 20.5 7.3 35 8.5 ESE 13 15 7 8 1013.5 1013.3 0.0
21/12:30am 24.2 21.1 7.4 34 8.8 ESE 13 17 7 9 1013.6 1013.4 0.0
21/12:00am 24.8 21.7 7.4 33 9.2 ESE 13 19 7 10 1013.6 1013.4 0.0
 
Date/Time
CST
Temp
°C
App
Temp
°C
Dew
Point
°C
Rel
Hum
%
Delta-T
°C
Wind Press
QNH
hPa
Press
MSL
hPa
Rain since
9am
mm
Dir  Spd
km/h
Gust
km/h
Spd
kts
Gust
kts
20/11:30pm 25.3 22.0 7.9 33 9.3 ESE 15 22 8 12 1013.7 1013.5 0.0
20/11:00pm 25.5 22.6 8.1 33 9.3 ESE 13 19 7 10 1013.7 1013.5 0.0
20/10:30pm 25.4 22.9 8.0 33 9.3 ESE 11 13 6 7 1013.9 1013.7 0.0
20/10:00pm 25.9 23.6 7.5 31 9.8 ESE 9 15 5 8 1013.8 1013.6 0.0
20/09:30pm 26.4 24.1 7.4 30 10.1 ESE 9 13 5 7 1013.6 1013.4 0.0
20/09:00pm 25.8 23.7 8.3 33 9.4 ESE 9 13 5 7 1013.1 1012.9 0.0
20/08:30pm 26.5 24.1 8.5 32 9.8 ESE 11 15 6 8 1012.8 1012.6 0.0
20/08:00pm 26.9 24.9 8.8 32 9.9 ESE 9 13 5 7 1012.3 1012.1 0.0
20/07:30pm 27.9 26.0 9.2 31 10.3 ESE 9 13 5 7 1011.7 1011.5 0.0
20/07:00pm 28.6 27.0 8.8 29 10.9 ESE 7 9 4 5 1011.3 1011.1 0.0
20/06:30pm 29.4 27.4 8.5 27 11.5 ESE 9 13 5 7 1010.8 1010.6 0.0
20/06:00pm 30.3 28.2 8.1 25 12.2 E 9 13 5 7 1010.5 1010.3 0.0
20/05:30pm 32.1 29.5 7.7 22 13.5 E 11 15 6 8 1010.1 1009.9 0.0
20/05:00pm 32.3 29.2 7.2 21 13.7 E 13 20 7 11 1009.8 1009.6 0.0
20/04:30pm 33.3 29.7 6.6 19 14.6 ENE 15 22 8 12 1009.7 1009.5 0.0
20/04:00pm 33.6 30.4 6.8 19 14.7 E 13 19 7 10 1009.8 1009.6 0.0
20/03:30pm 33.2 29.8 5.7 18 14.8 ESE 13 22 7 12 1010.0 1009.8 0.0
20/03:00pm 33.2 29.0 5.7 18 14.8 E 17 24 9 13 1010.2 1010.0 0.0
20/02:30pm 33.1 29.8 6.4 19 14.5 ESE 13 19 7 10 1010.5 1010.3 0.0
20/02:00pm 32.1 28.8 6.3 20 13.9 ESE 13 22 7 12 1011.1 1010.9 0.0
20/01:30pm 31.8 28.8 7.5 22 13.3 SE 13 24 7 13 1011.7 1011.5 0.0
20/01:00pm 31.8 28.9 8.1 23 13.1 SE 13 24 7 13 1012.3 1012.1 0.0
20/12:30pm 31.1 28.2 8.2 24 12.7 ESE 13 26 7 14 1012.7 1012.5 0.0
20/12:00pm 30.3 26.9 7.5 24 12.4 ESE 15 24 8 13 1013.1 1012.9 0.0
20/11:30am 29.5 25.2 8.0 26 11.7 ESE 20 30 11 16 1013.7 1013.5 0.0
20/11:00am 29.2 25.2 8.3 27 11.5 ESE 19 30 10 16 1014.0 1013.8 0.0
20/10:30am 27.9 23.0 10.1 33 10.0 ESE 26 41 14 22 1014.2 1014.0 0.0
20/10:00am 27.2 24.0 12.0 38 8.8 E 20 35 11 19 1014.3 1014.1 0.0
20/09:30am 26.4 22.9 13.5 45 7.6 E 24 41 13 22 1014.4 1014.2 0.0
20/09:00am 25.1 21.5 14.3 51 6.4 E 26 44 14 24 1014.4 1014.2 0.0
20/08:30am 24.6 21.7 14.1 52 6.2 E 22 37 12 20 1014.2 1014.0 0.0
20/08:00am 24.0 20.9 12.3 48 6.7 E 20 32 11 17 1014.0 1013.8 0.0
20/07:30am 23.2 19.7 10.3 44 7.1 E 19 28 10 15 1013.7 1013.5 0.0
20/07:00am 22.7 19.3 9.1 42 7.3 E 17 26 9 14 1013.4 1013.2 0.0
20/06:30am 22.7 19.7 9.1 42 7.3 E 15 22 8 12 1013.0 1012.8 0.0
20/06:00am 21.9 19.9 10.1 47 6.4 E 11 15 6 8 1012.9 1012.7 0.0
20/05:30am 21.8 20.1 10.0 47 6.4 E 9 13 5 7 1012.7 1012.5 0.0
20/05:00am 21.9 19.8 9.8 46 6.5 E 11 17 6 9 1012.3 1012.1 0.0
20/04:30am 22.0 19.9 9.9 46 6.6 E 11 17 6 9 1012.1 1011.9 0.0
20/04:00am 22.4 20.0 9.9 45 6.8 E 13 17 7 9 1012.2 1012.0 0.0
20/03:30am 22.6 20.5 9.7 44 7.0 E 11 15 6 8 1012.2 1012.0 0.0
20/03:00am 23.4 20.9 9.8 42 7.4 E 13 17 7 9 1012.4 1012.2 0.0
20/02:30am 23.8 21.3 9.8 41 7.7 E 13 19 7 10 1012.6 1012.4 0.0
20/02:00am 24.5 21.9 9.3 38 8.3 E 13 20 7 11 1012.8 1012.6 0.0
20/01:30am 24.3 21.5 8.7 37 8.4 E 13 19 7 10 1012.9 1012.7 0.0
20/01:00am 24.3 21.8 8.3 36 8.5 E 11 17 6 9 1013.0 1012.8 0.0
20/12:30am 24.8 22.0 8.7 36 8.7 E 13 19 7 10 1013.1 1012.9 0.0
20/12:00am 25.2 22.4 8.7 35 8.9 ESE 13 15 7 8 1013.3 1013.1 0.0
 
Date/Time
CST
Temp
°C
App
Temp
°C
Dew
Point
°C
Rel
Hum
%
Delta-T
°C
Wind Press
QNH
hPa
Press
MSL
hPa
Rain since
9am
mm
Dir  Spd
km/h
Gust
km/h
Spd
kts
Gust
kts
19/11:30pm 26.4 22.9 8.8 33 9.6 ESE 17 26 9 14 1013.3 1013.1 0.0
19/11:00pm 26.3 23.4 9.6 35 9.2 ESE 15 24 8 13 1013.5 1013.3 0.0
19/10:30pm 25.4 23.7 11.2 41 8.0 ESE 11 13 6 7 1013.5 1013.3 0.0
19/10:00pm 26.6 24.8 10.7 37 9.0 ESE 11 17 6 9 1013.5 1013.3 0.0
19/09:30pm 27.3 25.9 12.1 39 8.8 SE 11 17 6 9 1013.5 1013.3 0.0
19/09:00pm 26.0 25.1 12.5 43 7.8 E 9 11 5 6 1013.0 1012.8 0.0
19/08:30pm 26.4 25.7 12.1 41 8.2 ESE 7 9 4 5 1012.6 1012.4 0.0
19/08:00pm 28.5 27.7 11.1 34 10.0 SE 6 7 3 4 1012.3 1012.1 0.0
19/07:30pm 29.4 28.5 11.5 33 10.4 SE 7 13 4 7 1012.0 1011.8 0.0
19/07:00pm 29.5 28.5 11.1 32 10.6 SE 7 9 4 5 1011.6 1011.4 0.0
19/06:30pm 30.4 29.4 10.9 30 11.2 SE 7 9 4 5 1011.2 1011.0 0.0
19/06:00pm 32.0 30.7 11.2 28 12.1 ESE 9 15 5 8 1010.9 1010.7 0.0
19/05:30pm 33.0 30.9 9.7 24 13.3 SE 11 19 6 10 1010.5 1010.3 0.0
19/05:00pm 33.7 31.6 9.7 23 13.7 SE 11 20 6 11 1010.3 1010.1 0.0
19/04:30pm 34.0 31.8 9.3 22 14.1 SE 11 20 6 11 1010.4 1010.2 0.0
19/04:00pm 33.9 30.9 9.2 22 14.1 ESE 15 24 8 13 1010.3 1010.1 0.0
19/03:30pm 33.8 30.9 9.8 23 13.8 SE 15 26 8 14 1010.4 1010.2 0.0
19/03:00pm 33.7 30.4 9.7 23 13.8 E 17 30 9 16 1010.7 1010.5 0.0
19/02:30pm 33.4 30.1 9.4 23 13.7 SE 17 26 9 14 1011.1 1010.9 0.0
19/02:00pm 33.6 30.5 10.2 24 13.5 SSE 17 24 9 13 1011.5 1011.3 0.0
19/01:30pm 33.3 29.7 10.0 24 13.4 SE 19 30 10 16 1012.0 1011.8 0.0
19/01:00pm 32.6 29.4 11.2 27 12.5 SSE 19 30 10 16 1012.5 1012.3 0.0
19/12:30pm 31.7 28.6 10.4 27 12.2 ESE 17 30 9 16 1013.0 1012.8 0.0
19/12:00pm 31.4 28.1 11.7 29 11.5 SE 20 30 11 16 1013.6 1013.4 0.0
19/11:30am 31.4 29.0 12.7 32 11.1 SE 17 24 9 13 1013.9 1013.7 0.0
19/11:00am 29.9 27.3 13.2 36 9.9 ESE 19 28 10 15 1014.5 1014.3 0.0
19/10:30am 28.7 27.8 14.9 43 8.4 ESE 13 22 7 12 1015.0 1014.8 0.0
19/10:00am 27.4 26.3 14.4 45 7.8 ESE 13 19 7 10 1015.4 1015.2 0.0
19/09:30am 26.2 25.0 14.0 47 7.2 ESE 13 19 7 10 1015.6 1015.4 0.0
19/09:00am 25.7 25.0 13.2 46 7.3 ESE 9 15 5 8 1015.5 1015.3 0.0
19/08:30am 24.5 23.6 12.5 47 6.9 SE 9 15 5 8 1015.4 1015.2 0.0
19/08:00am 23.2 22.9 12.8 52 6.0 E 6 9 3 5 1015.1 1014.9 0.0
19/07:30am 21.3 20.8 12.2 56 5.1 E 6 7 3 4 1014.7 1014.5 0.0
19/07:00am 20.8 20.0 11.7 56 5.1 E 7 9 4 5 1014.3 1014.1 0.0
19/06:30am 21.9 20.7 11.6 52 5.8 ESE 9 13 5 7 1013.9 1013.7 0.0
19/06:00am 21.6 20.4 11.6 53 5.6 ESE 9 13 5 7 1013.5 1013.3 0.0
19/05:30am 21.3 19.6 11.3 53 5.5 E 11 13 6 7 1013.3 1013.1 0.0
19/05:00am 21.6 19.9 11.3 52 5.7 E 11 13 6 7 1013.1 1012.9 0.0
19/04:30am 22.4 20.4 11.5 50 6.1 E 13 15 7 8 1013.1 1012.9 0.0
19/04:00am 22.7 21.1 11.4 49 6.3 E 11 15 6 8 1013.1 1012.9 0.0
19/03:30am 23.1 21.1 11.5 48 6.5 E 13 15 7 8 1013.1 1012.9 0.0
19/03:00am 23.6 21.5 11.3 46 6.9 E 13 17 7 9 1013.3 1013.1 0.0
19/02:30am 23.7 22.1 11.4 46 6.9 E 11 15 6 8 1013.7 1013.5 0.0
19/02:00am 24.5 22.6 11.8 45 7.2 E 13 17 7 9 1014.0 1013.8 0.0
19/01:30am 24.9 23.0 11.8 44 7.4 ESE 13 19 7 10 1014.3 1014.1 0.0
19/01:00am 25.5 23.7 12.0 43 7.7 E 13 17 7 9 1014.4 1014.2 0.0
19/12:30am 26.0 23.8 12.1 42 8.0 E 15 20 8 11 1014.5 1014.3 0.0
19/12:00am 25.5 24.6 12.7 45 7.4 ESE 9 15 5 8 1014.8 1014.6 0.0
 
Date/Time
CST
Temp
°C
App
Temp
°C
Dew
Point
°C
Rel
Hum
%
Delta-T
°C
Wind Press
QNH
hPa
Press
MSL
hPa
Rain since
9am
mm
Dir  Spd
km/h
Gust
km/h
Spd
kts
Gust
kts
18/11:30pm 25.8 24.5 12.6 44 7.6 ESE 11 15 6 8 1015.0 1014.8 0.0
18/11:00pm 26.0 25.2 12.8 44 7.7 E 9 11 5 6 1015.1 1014.9 0.0
18/10:30pm 26.5 25.6 12.5 41 8.1 ESE 9 13 5 7 1015.2 1015.0 0.0
18/10:00pm 26.8 26.0 12.8 42 8.2 ESE 9 13 5 7 1015.0 1014.8 0.0
18/09:30pm 28.4 27.0 12.3 37 9.4 SE 11 15 6 8 1014.8 1014.6 0.0
18/09:00pm 29.0 27.8 12.8 36 9.5 SE 11 17 6 9 1014.5 1014.3 0.0
18/08:30pm 29.4 28.5 13.6 38 9.4 SE 11 19 6 10 1014.0 1013.8 0.0
18/08:00pm 29.0 29.2 14.8 42 8.6 SE 7 11 4 6 1013.8 1013.6 0.0
18/07:30pm 29.4 29.5 14.4 40 9.1 SE 7 11 4 6 1013.5 1013.3 0.0
18/07:00pm 29.6 29.6 14.2 39 9.3 SE 7 13 4 7 1013.1 1012.9 0.0
18/06:30pm 30.4 29.9 13.7 36 10.0 ESE 9 13 5 7 1012.7 1012.5 0.0
18/06:00pm 31.8 31.2 13.5 32 11.0 ESE 9 13 5 7 1012.4 1012.2 0.0
18/05:30pm 32.7 31.3 13.4 31 11.7 ESE 13 19 7 10 1012.1 1011.9 0.0
18/05:00pm 33.6 32.3 13.6 29 12.1 E 13 20 7 11 1011.8 1011.6 0.0
18/04:30pm 33.5 31.8 13.5 29 12.1 ESE 15 26 8 14 1011.7 1011.5 0.0
18/04:00pm 33.9 32.5 13.4 29 12.4 SE 13 22 7 12 1011.5 1011.3 0.0
18/03:30pm 33.9 32.5 13.4 29 12.4 SE 13 24 7 13 1011.5 1011.3 0.0
18/03:00pm 34.1 32.7 13.5 28 12.5 ESE 13 28 7 15 1011.6 1011.4 0.0
18/02:30pm 33.5 32.4 13.0 29 12.3 SE 11 20 6 11 1011.9 1011.7 0.0
18/02:00pm 33.2 31.2 12.8 29 12.2 SE 15 22 8 12 1012.4 1012.2 0.0
18/01:30pm 33.8 31.8 13.8 30 12.2 ESE 17 28 9 15 1012.9 1012.7 0.0
18/01:00pm 33.0 30.2 12.6 29 12.2 ESE 19 32 10 17 1013.4 1013.2 0.0
18/12:30pm 33.0 30.6 12.6 29 12.2 ESE 17 26 9 14 1013.7 1013.5 0.0
18/12:00pm 32.0 29.1 12.3 30 11.7 ESE 19 30 10 16 1014.3 1014.1 0.0
18/11:30am 31.9 29.4 12.2 30 11.6 ESE 17 30 9 16 1014.8 1014.6 0.0
18/11:00am 31.2 28.2 12.1 31 11.2 ESE 19 28 10 15 1015.1 1014.9 0.0
18/10:30am 30.2 27.2 12.6 34 10.4 SE 20 30 11 16 1015.5 1015.3 0.0

Other Formats:

Comma delimited format used in spreadsheet applications
http://www.bom.gov.au/fwo/IDD60801/IDD60801.94137.axf

JavaScript Object Notation format (JSON) in row-major order
http://www.bom.gov.au/fwo/IDD60801/IDD60801.94137.json